sensor_id;sensor_type;location;lat;lon;timestamp;pressure;altitude;pressure_sealevel;temperature;humidity
64200;BME280;50516;52.272;5.136;2022-08-19T00:00:08;101380.78;;;19.70;76.19
64200;BME280;50516;52.272;5.136;2022-08-19T00:02:35;101376.53;;;19.64;76.20
64200;BME280;50516;52.272;5.136;2022-08-19T00:05:00;101372.72;;;19.60;76.17
64200;BME280;50516;52.272;5.136;2022-08-19T00:07:26;101372.88;;;19.55;76.24
64200;BME280;50516;52.272;5.136;2022-08-19T00:09:51;101375.03;;;19.58;76.63
64200;BME280;50516;52.272;5.136;2022-08-19T00:12:17;101373.03;;;19.58;76.82
64200;BME280;50516;52.272;5.136;2022-08-19T00:14:42;101377.44;;;19.50;76.71
64200;BME280;50516;52.272;5.136;2022-08-19T00:17:08;101381.38;;;19.49;76.55
64200;BME280;50516;52.272;5.136;2022-08-19T00:19:34;101379.22;;;19.46;76.96
64200;BME280;50516;52.272;5.136;2022-08-19T00:22:00;101389.53;;;19.46;76.77
64200;BME280;50516;52.272;5.136;2022-08-19T00:24:28;101389.34;;;19.42;76.93
64200;BME280;50516;52.272;5.136;2022-08-19T00:26:54;101388.66;;;19.37;77.01
64200;BME280;50516;52.272;5.136;2022-08-19T00:29:23;101386.84;;;19.32;77.08
64200;BME280;50516;52.272;5.136;2022-08-19T00:31:49;101384.88;;;19.32;77.14
64200;BME280;50516;52.272;5.136;2022-08-19T00:34:18;101375.56;;;19.37;77.28
64200;BME280;50516;52.272;5.136;2022-08-19T00:36:43;101374.75;;;19.37;77.24
64200;BME280;50516;52.272;5.136;2022-08-19T00:39:10;101376.66;;;19.27;77.15
64200;BME280;50516;52.272;5.136;2022-08-19T00:41:35;101367.19;;;19.28;77.28
64200;BME280;50516;52.272;5.136;2022-08-19T00:44:09;101362.25;;;19.25;77.09
64200;BME280;50516;52.272;5.136;2022-08-19T00:46:37;101363.19;;;19.21;77.08
64200;BME280;50516;52.272;5.136;2022-08-19T00:49:09;101365.47;;;19.19;77.03
64200;BME280;50516;52.272;5.136;2022-08-19T00:51:35;101361.22;;;19.21;76.92
64200;BME280;50516;52.272;5.136;2022-08-19T00:54:02;101360.41;;;19.21;76.84
64200;BME280;50516;52.272;5.136;2022-08-19T00:56:28;101353.50;;;19.18;76.75
64200;BME280;50516;52.272;5.136;2022-08-19T00:58:57;101354.13;;;19.15;76.68
64200;BME280;50516;52.272;5.136;2022-08-19T01:01:23;101357.75;;;19.15;76.48
64200;BME280;50516;52.272;5.136;2022-08-19T01:03:50;101376.41;;;19.15;77.15
64200;BME280;50516;52.272;5.136;2022-08-19T01:06:15;101375.09;;;19.12;77.10
64200;BME280;50516;52.272;5.136;2022-08-19T01:08:41;101381.13;;;19.06;77.34
64200;BME280;50516;52.272;5.136;2022-08-19T01:11:06;101373.72;;;19.01;77.28
64200;BME280;50516;52.272;5.136;2022-08-19T01:13:34;101377.50;;;19.05;77.40
64200;BME280;50516;52.272;5.136;2022-08-19T01:16:06;101379.47;;;19.05;77.28
64200;BME280;50516;52.272;5.136;2022-08-19T01:18:35;101380.41;;;19.00;77.29
64200;BME280;50516;52.272;5.136;2022-08-19T01:21:09;101372.69;;;18.97;77.56
64200;BME280;50516;52.272;5.136;2022-08-19T01:23:35;101380.34;;;18.91;77.51
64200;BME280;50516;52.272;5.136;2022-08-19T01:26:18;101376.22;;;18.89;77.68
64200;BME280;50516;52.272;5.136;2022-08-19T01:28:46;101379.81;;;18.89;77.65
64200;BME280;50516;52.272;5.136;2022-08-19T01:31:15;101380.84;;;18.93;77.77
64200;BME280;50516;52.272;5.136;2022-08-19T01:33:41;101378.38;;;18.92;77.85
64200;BME280;50516;52.272;5.136;2022-08-19T01:36:10;101379.63;;;18.86;77.53
64200;BME280;50516;52.272;5.136;2022-08-19T01:38:38;101378.19;;;18.88;77.62
64200;BME280;50516;52.272;5.136;2022-08-19T01:41:04;101374.97;;;18.95;77.78
64200;BME280;50516;52.272;5.136;2022-08-19T01:43:31;101377.25;;;18.93;77.77
64200;BME280;50516;52.272;5.136;2022-08-19T01:45:57;101379.00;;;18.89;77.35
64200;BME280;50516;52.272;5.136;2022-08-19T01:48:22;101378.19;;;18.88;77.13
64200;BME280;50516;52.272;5.136;2022-08-19T01:50:48;101383.28;;;18.86;77.50
64200;BME280;50516;52.272;5.136;2022-08-19T01:53:14;101388.84;;;18.86;77.51
64200;BME280;50516;52.272;5.136;2022-08-19T01:55:42;101386.38;;;18.85;77.61
64200;BME280;50516;52.272;5.136;2022-08-19T01:58:16;101388.16;;;18.89;77.79
64200;BME280;50516;52.272;5.136;2022-08-19T02:00:44;101383.66;;;18.79;77.51
64200;BME280;50516;52.272;5.136;2022-08-19T02:03:10;101379.38;;;18.73;78.30
64200;BME280;50516;52.272;5.136;2022-08-19T02:05:37;101384.94;;;18.73;77.68
64200;BME280;50516;52.272;5.136;2022-08-19T02:08:02;101383.66;;;18.79;78.20
64200;BME280;50516;52.272;5.136;2022-08-19T02:10:28;101378.75;;;18.76;77.53
64200;BME280;50516;52.272;5.136;2022-08-19T02:12:54;101386.25;;;18.76;77.64
64200;BME280;50516;52.272;5.136;2022-08-19T02:15:20;101394.59;;;18.76;77.77
64200;BME280;50516;52.272;5.136;2022-08-19T02:17:47;101383.91;;;18.69;77.87
64200;BME280;50516;52.272;5.136;2022-08-19T02:20:12;101394.03;;;18.65;77.73
64200;BME280;50516;52.272;5.136;2022-08-19T02:22:39;101392.38;;;18.64;77.74
64200;BME280;50516;52.272;5.136;2022-08-19T02:25:07;101394.34;;;18.64;77.55
64200;BME280;50516;52.272;5.136;2022-08-19T02:27:32;101396.16;;;18.68;77.58
64200;BME280;50516;52.272;5.136;2022-08-19T02:29:59;101383.91;;;18.69;77.58
64200;BME280;50516;52.272;5.136;2022-08-19T02:32:24;101388.47;;;18.65;77.60
64200;BME280;50516;52.272;5.136;2022-08-19T02:34:49;101381.25;;;18.64;77.55
64200;BME280;50516;52.272;5.136;2022-08-19T02:37:15;101390.84;;;18.58;77.57
64200;BME280;50516;52.272;5.136;2022-08-19T02:39:59;101386.84;;;18.50;77.47
64200;BME280;50516;52.272;5.136;2022-08-19T02:42:24;101383.56;;;18.48;77.52
64200;BME280;50516;52.272;5.136;2022-08-19T02:44:50;101386.53;;;18.52;77.34
64200;BME280;50516;52.272;5.136;2022-08-19T02:47:17;101380.47;;;18.50;77.20
64200;BME280;50516;52.272;5.136;2022-08-19T02:49:44;101379.22;;;18.56;77.03
64200;BME280;50516;52.272;5.136;2022-08-19T02:52:09;101379.03;;;18.52;77.00
64200;BME280;50516;52.272;5.136;2022-08-19T02:54:36;101374.19;;;18.44;77.10
64200;BME280;50516;52.272;5.136;2022-08-19T02:57:02;101367.31;;;18.41;77.17
64200;BME280;50516;52.272;5.136;2022-08-19T02:59:30;101362.56;;;18.42;77.17
64200;BME280;50516;52.272;5.136;2022-08-19T03:01:56;101362.25;;;18.43;77.20
64200;BME280;50516;52.272;5.136;2022-08-19T03:04:21;101360.63;;;18.42;77.19
64200;BME280;50516;52.272;5.136;2022-08-19T03:06:48;101362.88;;;18.40;77.25
64200;BME280;50516;52.272;5.136;2022-08-19T03:09:14;101360.41;;;18.39;77.34
64200;BME280;50516;52.272;5.136;2022-08-19T03:11:40;101362.06;;;18.40;77.32
64200;BME280;50516;52.272;5.136;2022-08-19T03:14:07;101369.38;;;18.36;77.32
64200;BME280;50516;52.272;5.136;2022-08-19T03:16:35;101367.53;;;18.31;77.28
64200;BME280;50516;52.272;5.136;2022-08-19T03:19:04;101370.81;;;18.33;77.26
64200;BME280;50516;52.272;5.136;2022-08-19T03:21:31;101367.84;;;18.30;77.09
64200;BME280;50516;52.272;5.136;2022-08-19T03:24:00;101358.47;;;18.25;76.96
64200;BME280;50516;52.272;5.136;2022-08-19T03:26:26;101361.56;;;18.24;77.42
64200;BME280;50516;52.272;5.136;2022-08-19T03:28:52;101356.63;;;18.21;77.45
64200;BME280;50516;52.272;5.136;2022-08-19T03:31:19;101349.41;;;18.20;77.37
64200;BME280;50516;52.272;5.136;2022-08-19T03:33:47;101349.41;;;18.20;77.62
64200;BME280;50516;52.272;5.136;2022-08-19T03:36:17;101340.59;;;18.18;77.45
64200;BME280;50516;52.272;5.136;2022-08-19T03:38:45;101339.56;;;18.14;77.40
64200;BME280;50516;52.272;5.136;2022-08-19T03:41:16;101346.25;;;18.13;77.53
64200;BME280;50516;52.272;5.136;2022-08-19T03:43:42;101341.81;;;18.12;77.54
64200;BME280;50516;52.272;5.136;2022-08-19T03:46:14;101340.69;;;18.13;77.52
64200;BME280;50516;52.272;5.136;2022-08-19T03:48:42;101337.91;;;18.13;77.52
64200;BME280;50516;52.272;5.136;2022-08-19T03:51:15;101344.50;;;18.17;77.46
64200;BME280;50516;52.272;5.136;2022-08-19T03:53:41;101351.69;;;18.18;77.29
64200;BME280;50516;52.272;5.136;2022-08-19T03:56:09;101356.44;;;18.17;77.46
64200;BME280;50516;52.272;5.136;2022-08-19T03:58:35;101357.38;;;18.13;77.48
64200;BME280;50516;52.272;5.136;2022-08-19T04:01:07;101365.72;;;18.13;77.70
64200;BME280;50516;52.272;5.136;2022-08-19T04:03:32;101359.53;;;18.16;77.84
64200;BME280;50516;52.272;5.136;2022-08-19T04:05:57;101347.28;;;18.17;77.76
64200;BME280;50516;52.272;5.136;2022-08-19T04:08:23;101360.34;;;18.16;77.67
64200;BME280;50516;52.272;5.136;2022-08-19T04:10:49;101350.88;;;18.17;77.48
64200;BME280;50516;52.272;5.136;2022-08-19T04:13:15;101358.91;;;18.19;78.00
64200;BME280;50516;52.272;5.136;2022-08-19T04:15:43;101355.31;;;18.18;77.83
64200;BME280;50516;52.272;5.136;2022-08-19T04:18:09;101352.53;;;18.18;77.64
64200;BME280;50516;52.272;5.136;2022-08-19T04:20:46;101347.78;;;18.19;77.91
64200;BME280;50516;52.272;5.136;2022-08-19T04:23:13;101349.94;;;18.22;77.96
64200;BME280;50516;52.272;5.136;2022-08-19T04:25:42;101343.06;;;18.19;78.13
64200;BME280;50516;52.272;5.136;2022-08-19T04:28:10;101338.97;;;18.17;78.79
64200;BME280;50516;52.272;5.136;2022-08-19T04:30:41;101343.88;;;18.20;78.44
64200;BME280;50516;52.272;5.136;2022-08-19T04:33:09;101342.03;;;18.15;78.23
64200;BME280;50516;52.272;5.136;2022-08-19T04:35:45;101340.19;;;18.11;78.54
64200;BME280;50516;52.272;5.136;2022-08-19T04:38:12;101345.56;;;18.07;78.19
64200;BME280;50516;52.272;5.136;2022-08-19T04:40:47;101351.94;;;18.08;78.76
64200;BME280;50516;52.272;5.136;2022-08-19T04:43:32;101342.97;;;18.11;78.78
64200;BME280;50516;52.272;5.136;2022-08-19T04:45:58;101342.78;;;18.07;78.46
64200;BME280;50516;52.272;5.136;2022-08-19T04:48:24;101347.19;;;18.08;78.39
64200;BME280;50516;52.272;5.136;2022-08-19T04:50:53;101347.59;;;18.15;78.78
64200;BME280;50516;52.272;5.136;2022-08-19T04:53:32;101348.00;;;18.22;78.96
64200;BME280;50516;52.272;5.136;2022-08-19T04:55:59;101348.31;;;18.21;78.43
64200;BME280;50516;52.272;5.136;2022-08-19T04:58:26;101356.63;;;18.21;78.08
64200;BME280;50516;52.272;5.136;2022-08-19T05:00:52;101355.72;;;18.25;78.21
64200;BME280;50516;52.272;5.136;2022-08-19T05:03:18;101357.56;;;18.30;77.96
64200;BME280;50516;52.272;5.136;2022-08-19T05:05:45;101367.81;;;18.43;78.35
64200;BME280;50516;52.272;5.136;2022-08-19T05:08:12;101373.88;;;18.46;78.82
64200;BME280;50516;52.272;5.136;2022-08-19T05:10:39;101376.75;;;18.54;78.63
64200;BME280;50516;52.272;5.136;2022-08-19T05:13:04;101384.53;;;18.66;77.78
64200;BME280;50516;52.272;5.136;2022-08-19T05:15:30;101386.75;;;18.78;78.33
64200;BME280;50516;52.272;5.136;2022-08-19T05:17:56;101395.84;;;18.84;78.44
64200;BME280;50516;52.272;5.136;2022-08-19T05:20:40;101390.47;;;18.87;77.91
64200;BME280;50516;52.272;5.136;2022-08-19T05:23:24;101382.38;;;19.00;78.46
64200;BME280;50516;52.272;5.136;2022-08-19T05:25:51;101383.94;;;19.14;78.92
64200;BME280;50516;52.272;5.136;2022-08-19T05:28:17;101378.31;;;19.28;77.89
64200;BME280;50516;52.272;5.136;2022-08-19T05:30:44;101378.84;;;19.39;78.23
64200;BME280;50516;52.272;5.136;2022-08-19T05:33:10;101375.81;;;19.49;78.27
64200;BME280;50516;52.272;5.136;2022-08-19T05:35:37;101375.50;;;19.60;78.46
64200;BME280;50516;52.272;5.136;2022-08-19T05:38:03;101373.91;;;19.67;78.46
64200;BME280;50516;52.272;5.136;2022-08-19T05:40:31;101380.47;;;19.71;78.03
64200;BME280;50516;52.272;5.136;2022-08-19T05:42:58;101364.97;;;19.79;77.99
64200;BME280;50516;52.272;5.136;2022-08-19T05:45:24;101367.47;;;19.90;78.13
64200;BME280;50516;52.272;5.136;2022-08-19T05:47:49;101370.13;;;20.03;78.21
64200;BME280;50516;52.272;5.136;2022-08-19T05:50:15;101369.16;;;20.17;77.91
64200;BME280;50516;52.272;5.136;2022-08-19T05:52:41;101367.88;;;20.23;77.70
64200;BME280;50516;52.272;5.136;2022-08-19T05:55:06;101376.41;;;20.44;77.14
64200;BME280;50516;52.272;5.136;2022-08-19T05:57:32;101372.00;;;20.43;77.12
64200;BME280;50516;52.272;5.136;2022-08-19T05:59:57;101366.53;;;20.12;79.49
64200;BME280;50516;52.272;5.136;2022-08-19T06:02:28;101370.00;;;20.17;79.10
64200;BME280;50516;52.272;5.136;2022-08-19T06:04:55;101371.13;;;20.16;78.53
64200;BME280;50516;52.272;5.136;2022-08-19T06:07:21;101365.06;;;20.14;80.10
64200;BME280;50516;52.272;5.136;2022-08-19T06:09:46;101376.72;;;20.16;80.66
64200;BME280;50516;52.272;5.136;2022-08-19T06:12:11;101368.34;;;20.16;80.41
64200;BME280;50516;52.272;5.136;2022-08-19T06:14:37;101372.94;;;20.12;80.58
64200;BME280;50516;52.272;5.136;2022-08-19T06:17:02;101373.13;;;20.24;81.07
64200;BME280;50516;52.272;5.136;2022-08-19T06:19:29;101382.81;;;20.36;81.02
64200;BME280;50516;52.272;5.136;2022-08-19T06:21:59;101368.72;;;20.32;81.66
64200;BME280;50516;52.272;5.136;2022-08-19T06:24:28;101365.75;;;20.29;82.17
64200;BME280;50516;52.272;5.136;2022-08-19T06:26:55;101372.16;;;20.29;82.41
64200;BME280;50516;52.272;5.136;2022-08-19T06:29:22;101361.47;;;20.22;82.79
64200;BME280;50516;52.272;5.136;2022-08-19T06:31:51;101369.72;;;20.36;82.71
64200;BME280;50516;52.272;5.136;2022-08-19T06:34:17;101366.91;;;20.45;82.40
64200;BME280;50516;52.272;5.136;2022-08-19T06:36:45;101355.75;;;20.45;82.30
64200;BME280;50516;52.272;5.136;2022-08-19T06:39:13;101367.25;;;20.35;83.08
64200;BME280;50516;52.272;5.136;2022-08-19T06:41:44;101362.97;;;20.37;83.11
64200;BME280;50516;52.272;5.136;2022-08-19T06:44:10;101364.09;;;20.28;83.30
64200;BME280;50516;52.272;5.136;2022-08-19T06:46:37;101370.50;;;20.28;83.08
64200;BME280;50516;52.272;5.136;2022-08-19T06:49:03;101369.19;;;20.34;83.42
64200;BME280;50516;52.272;5.136;2022-08-19T06:51:29;101374.16;;;20.46;82.96
64200;BME280;50516;52.272;5.136;2022-08-19T06:53:56;101379.72;;;20.55;82.72
64200;BME280;50516;52.272;5.136;2022-08-19T06:56:28;101383.16;;;20.43;83.36
64200;BME280;50516;52.272;5.136;2022-08-19T06:59:07;101381.69;;;20.46;83.71
64200;BME280;50516;52.272;5.136;2022-08-19T07:01:37;101385.44;;;20.41;83.47
64200;BME280;50516;52.272;5.136;2022-08-19T07:04:05;101379.69;;;20.37;83.45
64200;BME280;50516;52.272;5.136;2022-08-19T07:06:31;101391.66;;;20.38;83.96
64200;BME280;50516;52.272;5.136;2022-08-19T07:08:57;101390.38;;;20.44;84.09
64200;BME280;50516;52.272;5.136;2022-08-19T07:11:23;101392.66;;;20.51;83.75
64200;BME280;50516;52.272;5.136;2022-08-19T07:13:48;101396.31;;;20.51;83.46
64200;BME280;50516;52.272;5.136;2022-08-19T07:16:18;101399.91;;;20.52;83.78
64200;BME280;50516;52.272;5.136;2022-08-19T07:18:50;101399.47;;;20.67;83.26
64200;BME280;50516;52.272;5.136;2022-08-19T07:21:19;101389.44;;;20.75;83.00
64200;BME280;50516;52.272;5.136;2022-08-19T07:23:45;101393.22;;;20.96;82.08
64200;BME280;50516;52.272;5.136;2022-08-19T07:26:17;101400.94;;;21.00;82.18
64200;BME280;50516;52.272;5.136;2022-08-19T07:28:44;101405.22;;;20.88;82.88
64200;BME280;50516;52.272;5.136;2022-08-19T07:31:12;101404.56;;;20.91;83.40
64200;BME280;50516;52.272;5.136;2022-08-19T07:33:39;101407.81;;;20.93;82.74
64200;BME280;50516;52.272;5.136;2022-08-19T07:36:06;101404.88;;;20.98;82.68
64200;BME280;50516;52.272;5.136;2022-08-19T07:38:33;101399.75;;;21.18;82.23
64200;BME280;50516;52.272;5.136;2022-08-19T07:40:59;101399.09;;;21.12;82.03
64200;BME280;50516;52.272;5.136;2022-08-19T07:43:26;101403.19;;;21.15;82.40
64200;BME280;50516;52.272;5.136;2022-08-19T07:45:53;101406.13;;;21.27;81.22
64200;BME280;50516;52.272;5.136;2022-08-19T07:48:23;101401.50;;;21.31;81.67
64200;BME280;50516;52.272;5.136;2022-08-19T07:50:52;101404.81;;;21.51;81.21
64200;BME280;50516;52.272;5.136;2022-08-19T07:53:17;101409.06;;;21.48;81.37
64200;BME280;50516;52.272;5.136;2022-08-19T07:55:43;101404.78;;;21.42;81.30
64200;BME280;50516;52.272;5.136;2022-08-19T07:58:10;101402.63;;;21.57;81.40
64200;BME280;50516;52.272;5.136;2022-08-19T08:00:36;101403.09;;;21.67;80.93
64200;BME280;50516;52.272;5.136;2022-08-19T08:03:01;101409.44;;;21.85;80.49
64200;BME280;50516;52.272;5.136;2022-08-19T08:05:27;101410.56;;;21.93;79.66
64200;BME280;50516;52.272;5.136;2022-08-19T08:08:12;101411.50;;;21.97;79.26
64200;BME280;50516;52.272;5.136;2022-08-19T08:10:56;101413.00;;;22.24;77.78
64200;BME280;50516;52.272;5.136;2022-08-19T08:13:21;101414.75;;;22.38;78.04
64200;BME280;50516;52.272;5.136;2022-08-19T08:15:46;101422.06;;;22.30;77.50
64200;BME280;50516;52.272;5.136;2022-08-19T08:18:12;101423.59;;;22.49;77.39
64200;BME280;50516;52.272;5.136;2022-08-19T08:20:38;101425.56;;;22.48;77.15
64200;BME280;50516;52.272;5.136;2022-08-19T08:23:04;101430.34;;;22.48;77.34
64200;BME280;50516;52.272;5.136;2022-08-19T08:25:47;101423.50;;;22.57;76.62
64200;BME280;50516;52.272;5.136;2022-08-19T08:28:14;101430.63;;;22.55;76.94
64200;BME280;50516;52.272;5.136;2022-08-19T08:30:40;101430.41;;;22.60;76.60
64200;BME280;50516;52.272;5.136;2022-08-19T08:33:07;101425.56;;;22.48;76.14
64200;BME280;50516;52.272;5.136;2022-08-19T08:35:33;101422.50;;;22.62;76.29
64200;BME280;50516;52.272;5.136;2022-08-19T08:37:58;101427.38;;;22.74;76.23
64200;BME280;50516;52.272;5.136;2022-08-19T08:40:28;101434.03;;;22.82;75.82
64200;BME280;50516;52.272;5.136;2022-08-19T08:43:16;101430.72;;;22.88;75.57
64200;BME280;50516;52.272;5.136;2022-08-19T08:46:11;101430.34;;;22.90;74.41
64200;BME280;50516;52.272;5.136;2022-08-19T08:48:50;101431.53;;;22.89;75.22
64200;BME280;50516;52.272;5.136;2022-08-19T08:51:24;101437.47;;;22.87;75.50
64200;BME280;50516;52.272;5.136;2022-08-19T08:53:52;101428.97;;;22.96;74.61
64200;BME280;50516;52.272;5.136;2022-08-19T08:56:19;101430.34;;;22.90;75.20
64200;BME280;50516;52.272;5.136;2022-08-19T08:58:54;101425.47;;;23.08;74.65
64200;BME280;50516;52.272;5.136;2022-08-19T09:01:22;101439.63;;;23.24;73.95
64200;BME280;50516;52.272;5.136;2022-08-19T09:03:47;101437.50;;;23.42;74.48
64200;BME280;50516;52.272;5.136;2022-08-19T09:06:28;101430.28;;;23.53;73.96
64200;BME280;50516;52.272;5.136;2022-08-19T09:09:16;101432.09;;;23.95;73.01
64200;BME280;50516;52.272;5.136;2022-08-19T09:12:13;101431.97;;;23.79;72.40
64200;BME280;50516;52.272;5.136;2022-08-19T09:14:58;101431.69;;;23.72;71.93
64200;BME280;50516;52.272;5.136;2022-08-19T09:17:27;101433.56;;;23.80;72.10
64200;BME280;50516;52.272;5.136;2022-08-19T09:22:24;101431.19;;;23.91;71.53
64200;BME280;50516;52.272;5.136;2022-08-19T09:24:52;101442.75;;;23.89;71.91
64200;BME280;50516;52.272;5.136;2022-08-19T09:27:19;101433.06;;;24.11;71.37
64200;BME280;50516;52.272;5.136;2022-08-19T09:29:46;101434.44;;;24.17;71.17
64200;BME280;50516;52.272;5.136;2022-08-19T09:32:13;101437.00;;;24.47;70.53
64200;BME280;50516;52.272;5.136;2022-08-19T09:34:39;101435.19;;;24.79;69.34
64200;BME280;50516;52.272;5.136;2022-08-19T09:37:04;101434.41;;;24.67;69.87
64200;BME280;50516;52.272;5.136;2022-08-19T09:39:30;101434.22;;;24.59;71.33
64200;BME280;50516;52.272;5.136;2022-08-19T09:41:56;101440.38;;;24.65;70.56
64200;BME280;50516;52.272;5.136;2022-08-19T09:44:21;101438.03;;;24.67;70.37
64200;BME280;50516;52.272;5.136;2022-08-19T09:46:46;101434.97;;;24.72;68.46
64200;BME280;50516;52.272;5.136;2022-08-19T09:49:12;101436.69;;;24.89;68.01
64200;BME280;50516;52.272;5.136;2022-08-19T09:51:37;101429.91;;;24.90;68.18
64200;BME280;50516;52.272;5.136;2022-08-19T09:54:04;101442.69;;;24.75;69.38
64200;BME280;50516;52.272;5.136;2022-08-19T09:56:30;101442.72;;;24.63;69.45
64200;BME280;50516;52.272;5.136;2022-08-19T09:58:58;101438.44;;;24.94;68.54
64200;BME280;50516;52.272;5.136;2022-08-19T10:01:27;101448.75;;;25.18;68.11
64200;BME280;50516;52.272;5.136;2022-08-19T10:03:54;101437.78;;;25.13;67.04
64200;BME280;50516;52.272;5.136;2022-08-19T10:06:22;101450.03;;;24.92;67.15
64200;BME280;50516;52.272;5.136;2022-08-19T10:08:48;101439.31;;;24.70;67.36
64200;BME280;50516;52.272;5.136;2022-08-19T10:11:14;101440.81;;;25.08;67.02
64200;BME280;50516;52.272;5.136;2022-08-19T10:13:42;101438.63;;;25.01;66.21
64200;BME280;50516;52.272;5.136;2022-08-19T10:16:12;101439.53;;;24.77;67.37
64200;BME280;50516;52.272;5.136;2022-08-19T10:18:38;101434.75;;;25.06;67.44
64200;BME280;50516;52.272;5.136;2022-08-19T10:21:08;101428.88;;;25.11;65.45
64200;BME280;50516;52.272;5.136;2022-08-19T10:23:38;101422.50;;;25.26;66.39
64200;BME280;50516;52.272;5.136;2022-08-19T10:26:05;101432.78;;;25.35;66.10
64200;BME280;50516;52.272;5.136;2022-08-19T10:28:33;101428.41;;;25.09;65.89
64200;BME280;50516;52.272;5.136;2022-08-19T10:31:03;101428.31;;;25.05;66.77
64200;BME280;50516;52.272;5.136;2022-08-19T10:33:30;101422.75;;;24.93;66.44
64200;BME280;50516;52.272;5.136;2022-08-19T10:36:08;101419.94;;;25.21;66.22
64200;BME280;50516;52.272;5.136;2022-08-19T10:38:35;101429.03;;;25.75;64.93
64200;BME280;50516;52.272;5.136;2022-08-19T10:41:12;101418.75;;;26.14;63.09
64200;BME280;50516;52.272;5.136;2022-08-19T10:43:39;101428.78;;;26.12;62.01
64200;BME280;50516;52.272;5.136;2022-08-19T10:46:10;101432.63;;;25.59;63.86
64200;BME280;50516;52.272;5.136;2022-08-19T10:48:35;101427.19;;;25.22;64.55
64200;BME280;50516;52.272;5.136;2022-08-19T10:51:02;101422.56;;;24.86;65.83
64200;BME280;50516;52.272;5.136;2022-08-19T10:53:46;101427.03;;;24.74;67.10
64200;BME280;50516;52.272;5.136;2022-08-19T10:56:11;101430.66;;;24.75;66.34
64200;BME280;50516;52.272;5.136;2022-08-19T10:58:56;101426.94;;;24.71;65.96
64200;BME280;50516;52.272;5.136;2022-08-19T11:01:23;101426.94;;;24.58;66.97
64200;BME280;50516;52.272;5.136;2022-08-19T11:03:48;101423.34;;;24.21;68.53
64200;BME280;50516;52.272;5.136;2022-08-19T11:06:15;101439.53;;;23.78;72.93
64200;BME280;50516;52.272;5.136;2022-08-19T11:08:41;101429.00;;;23.63;74.55
64200;BME280;50516;52.272;5.136;2022-08-19T11:11:07;101439.38;;;23.62;75.74
64200;BME280;50516;52.272;5.136;2022-08-19T11:13:36;101439.38;;;23.62;74.91
64200;BME280;50516;52.272;5.136;2022-08-19T11:16:22;101440.97;;;23.84;74.27
64200;BME280;50516;52.272;5.136;2022-08-19T11:18:51;101451.88;;;23.98;75.04
64200;BME280;50516;52.272;5.136;2022-08-19T11:21:21;101439.25;;;24.29;74.83
64200;BME280;50516;52.272;5.136;2022-08-19T11:23:49;101440.53;;;24.56;74.25
64200;BME280;50516;52.272;5.136;2022-08-19T11:26:16;101436.63;;;24.61;74.80
64200;BME280;50516;52.272;5.136;2022-08-19T11:28:42;101432.66;;;24.62;75.20
64200;BME280;50516;52.272;5.136;2022-08-19T11:31:13;101433.84;;;24.49;75.93
64200;BME280;50516;52.272;5.136;2022-08-19T11:33:39;101435.34;;;24.46;76.13
64200;BME280;50516;52.272;5.136;2022-08-19T11:36:05;101430.63;;;24.87;75.30
64200;BME280;50516;52.272;5.136;2022-08-19T11:38:30;101437.53;;;25.18;74.69
64200;BME280;50516;52.272;5.136;2022-08-19T11:40:57;101436.88;;;25.37;74.24
64200;BME280;50516;52.272;5.136;2022-08-19T11:43:23;101435.16;;;25.20;75.75
64200;BME280;50516;52.272;5.136;2022-08-19T11:45:52;101434.03;;;24.81;73.54
64200;BME280;50516;52.272;5.136;2022-08-19T11:48:17;101436.22;;;24.87;74.01
64200;BME280;50516;52.272;5.136;2022-08-19T11:50:47;101442.16;;;24.57;74.50
64200;BME280;50516;52.272;5.136;2022-08-19T11:53:13;101434.19;;;24.47;73.97
64200;BME280;50516;52.272;5.136;2022-08-19T11:55:38;101441.81;;;24.47;73.55
64200;BME280;50516;52.272;5.136;2022-08-19T11:58:05;101440.97;;;24.58;73.34
64200;BME280;50516;52.272;5.136;2022-08-19T12:00:32;101443.91;;;24.62;72.78
64200;BME280;50516;52.272;5.136;2022-08-19T12:02:58;101446.94;;;24.57;73.77
64200;BME280;50516;52.272;5.136;2022-08-19T12:05:23;101450.34;;;24.50;73.87
64200;BME280;50516;52.272;5.136;2022-08-19T12:07:49;101437.69;;;24.32;73.46
64200;BME280;50516;52.272;5.136;2022-08-19T12:10:14;101447.53;;;24.13;76.01
64200;BME280;50516;52.272;5.136;2022-08-19T12:12:40;101449.66;;;23.92;77.19
64200;BME280;50516;52.272;5.136;2022-08-19T12:15:08;101448.47;;;23.93;76.92
64200;BME280;50516;52.272;5.136;2022-08-19T12:17:34;101445.19;;;23.91;76.99
64200;BME280;50516;52.272;5.136;2022-08-19T12:19:59;101446.97;;;23.95;76.47
64200;BME280;50516;52.272;5.136;2022-08-19T12:22:25;101445.88;;;23.87;77.19
64200;BME280;50516;52.272;5.136;2022-08-19T12:24:54;101453.63;;;24.15;77.06
64200;BME280;50516;52.272;5.136;2022-08-19T12:27:20;101445.44;;;24.10;76.28
64200;BME280;50516;52.272;5.136;2022-08-19T12:29:45;101445.44;;;23.98;76.65
64200;BME280;50516;52.272;5.136;2022-08-19T12:32:11;101452.75;;;23.78;76.52
64200;BME280;50516;52.272;5.136;2022-08-19T12:34:36;101443.03;;;23.75;77.88
64200;BME280;50516;52.272;5.136;2022-08-19T12:37:04;101446.78;;;23.79;77.92
64200;BME280;50516;52.272;5.136;2022-08-19T12:39:34;101439.47;;;23.87;77.93
64200;BME280;50516;52.272;5.136;2022-08-19T12:41:59;101437.34;;;23.96;77.61
64200;BME280;50516;52.272;5.136;2022-08-19T12:44:24;101429.06;;;23.87;77.88
64200;BME280;50516;52.272;5.136;2022-08-19T12:46:50;101439.81;;;23.85;77.63
64200;BME280;50516;52.272;5.136;2022-08-19T12:49:15;101434.69;;;24.00;78.38
64200;BME280;50516;52.272;5.136;2022-08-19T12:51:41;101438.66;;;23.99;77.14
64200;BME280;50516;52.272;5.136;2022-08-19T12:54:07;101430.59;;;24.10;76.95
64200;BME280;50516;52.272;5.136;2022-08-19T12:56:33;101437.59;;;24.03;77.24